Latest Weather Observations for Sellicks Hill

IDS60801

Issued at 2:31 am CST Sunday 24 July 2016 (issued every 30 minutes, with the page automatically refreshed every 10 minutes)

About weather observations | Map of weather stations | Latest weather observations for SA | Other Formats
Station Details ID: 023886 Name: MOUNT TERRIBLE RADAR Lat: -35.33 Lon: 138.50 Height: 385.7 m
Data from the previous 72 hours. | See also: Recent months for locations in South Australia
Date/Time
CST
Temp
°C
App
Temp
°C
Dew
Point
°C
Rel
Hum
%
Delta-T
°C
Wind Press
QNH
hPa
Press
MSL
hPa
Rain since
9am
mm
Dir  Spd
km/h
Gust
km/h
Spd
kts
Gust
kts
24/02:30am - - - - - N 15 28 8 15 - - -
24/02:00am - - - - - N 13 32 7 17 - - -
24/01:30am - - - - - N 13 28 7 15 - - -
24/01:00am - - - - - NNW 11 22 6 12 - - -
24/12:30am - - - - - N 9 17 5 9 - - -
24/12:00am - - - - - N 7 17 4 9 - - -
 
Date/Time
CST
Temp
°C
App
Temp
°C
Dew
Point
°C
Rel
Hum
%
Delta-T
°C
Wind Press
QNH
hPa
Press
MSL
hPa
Rain since
9am
mm
Dir  Spd
km/h
Gust
km/h
Spd
kts
Gust
kts
23/11:30pm - - - - - NW 17 26 9 14 - - -
23/11:00pm - - - - - NNW 15 26 8 14 - - -
23/10:30pm - - - - - NNW 13 26 7 14 - - -
23/10:00pm - - - - - NW 15 24 8 13 - - -
23/09:30pm - - - - - NNW 11 22 6 12 - - -
23/09:00pm - - - - - NNW 9 17 5 9 - - -
23/08:30pm - - - - - NNW 9 15 5 8 - - -
23/08:00pm - - - - - NNW 9 13 5 7 - - -
23/07:30pm - - - - - NNW 6 9 3 5 - - -
23/07:00pm - - - - - NNW 7 11 4 6 - - -
23/06:30pm - - - - - N 2 4 1 2 - - -
23/06:00pm - - - - - N 6 9 3 5 - - -
23/05:30pm - - - - - NW 6 11 3 6 - - -
23/05:00pm - - - - - NW 7 15 4 8 - - -
23/04:30pm - - - - - WNW 6 13 3 7 - - -
23/04:00pm - - - - - NW 6 11 3 6 - - -
23/03:30pm - - - - - NW 9 20 5 11 - - -
23/03:00pm - - - - - WNW 9 19 5 10 - - -
23/02:30pm - - - - - WNW 9 20 5 11 - - -
23/02:00pm - - - - - WNW 11 19 6 10 - - -
23/01:30pm - - - - - W 9 20 5 11 - - -
23/01:00pm - - - - - WNW 11 22 6 12 - - -
23/12:30pm - - - - - WNW 11 20 6 11 - - -
23/12:00pm - - - - - W 9 22 5 12 - - -
23/11:30am - - - - - WNW 9 20 5 11 - - -
23/11:00am - - - - - W 7 17 4 9 - - -
23/10:30am - - - - - WSW 9 19 5 10 - - -
23/10:00am - - - - - W 6 13 3 7 - - -
23/09:30am - - - - - SW 9 22 5 12 - - -
23/09:00am - - - - - SW 9 19 5 10 - - -
23/08:30am - - - - - SW 7 13 4 7 - - -
23/08:00am - - - - - SW 11 17 6 9 - - -
23/07:30am - - - - - SW 11 20 6 11 - - -
23/07:00am - - - - - SW 11 22 6 12 - - -
23/06:30am - - - - - SW 15 26 8 14 - - -
23/06:00am - - - - - SW 13 24 7 13 - - -
23/05:30am - - - - - SW 13 24 7 13 - - -
23/05:00am - - - - - SW 11 20 6 11 - - -
23/04:30am - - - - - W 11 26 6 14 - - -
23/04:00am - - - - - WSW 11 22 6 12 - - -
23/03:30am - - - - - W 11 22 6 12 - - -
23/03:00am - - - - - W 11 20 6 11 - - -
23/02:30am - - - - - W 11 20 6 11 - - -
23/02:00am - - - - - W 11 20 6 11 - - -
23/01:30am - - - - - W 11 22 6 12 - - -
23/01:00am - - - - - W 11 26 6 14 - - -
23/12:30am - - - - - W 17 35 9 19 - - -
23/12:00am - - - - - W 20 46 11 25 - - -
 
Date/Time
CST
Temp
°C
App
Temp
°C
Dew
Point
°C
Rel
Hum
%
Delta-T
°C
Wind Press
QNH
hPa
Press
MSL
hPa
Rain since
9am
mm
Dir  Spd
km/h
Gust
km/h
Spd
kts
Gust
kts
22/11:30pm - - - - - W 24 48 13 26 - - -
22/11:00pm - - - - - WNW 24 59 13 32 - - -
22/10:30pm - - - - - WNW 24 43 13 23 - - -
22/10:00pm - - - - - W 26 57 14 31 - - -
22/09:32pm - - - - - WNW 28 50 15 27 - - -
22/09:30pm - - - - - WNW 26 48 14 26 - - -
22/09:00pm - - - - - WNW 28 50 15 27 - - -
22/08:30pm - - - - - WNW 30 61 16 33 - - -
22/08:10pm - - - - - NW 28 56 15 30 - - -
22/08:00pm - - - - - NW 22 52 12 28 - - -
22/07:33pm - - - - - WNW 28 57 15 31 - - -
22/07:30pm - - - - - WNW 24 57 13 31 - - -
22/07:09pm - - - - - NW 28 57 15 31 - - -
22/07:00pm - - - - - WNW 26 50 14 27 - - -
22/06:30pm - - - - - WNW 28 54 15 29 - - -
22/06:06pm - - - - - WNW 28 70 15 38 - - -
22/06:00pm - - - - - NW 22 52 12 28 - - -
22/05:30pm - - - - - NW 20 46 11 25 - - -
22/05:00pm - - - - - NW 22 46 12 25 - - -
22/04:30pm - - - - - NW 28 59 15 32 - - -
22/04:28pm - - - - - NW 28 59 15 32 - - -
22/04:00pm - - - - - NW 22 46 12 25 - - -
22/03:30pm - - - - - NW 24 52 13 28 - - -
22/03:07pm - - - - - NW 30 48 16 26 - - -
22/03:00pm - - - - - NW 30 46 16 25 - - -
22/02:51pm - - - - - NW 28 46 15 25 - - -
22/02:30pm - - - - - NW 26 46 14 25 - - -
22/02:02pm - - - - - NNW 28 50 15 27 - - -
22/02:00pm - - - - - NNW 26 50 14 27 - - -
22/01:30pm - - - - - NW 26 50 14 27 - - -
22/01:00pm - - - - - NW 20 39 11 21 - - -
22/12:40pm - - - - - NW 28 46 15 25 - - -
22/12:30pm - - - - - NNW 26 48 14 26 - - -
22/12:00pm - - - - - NNW 28 46 15 25 - - -
22/11:30am - - - - - NW 28 48 15 26 - - -
22/11:00am - - - - - NNW 30 54 16 29 - - -
22/10:46am - - - - - NNW 30 48 16 26 - - -
22/10:30am - - - - - NNW 26 39 14 21 - - -
22/10:00am - - - - - NNW 24 43 13 23 - - -
22/09:30am - - - - - NW 24 43 13 23 - - -
22/09:00am - - - - - NW 24 39 13 21 - - -
22/08:30am - - - - - NW 26 43 14 23 - - -
22/08:00am - - - - - NW 20 33 11 18 - - -
22/07:30am - - - - - NW 20 37 11 20 - - -
22/07:00am - - - - - NNW 20 35 11 19 - - -
22/06:30am - - - - - NW 20 35 11 19 - - -
22/06:00am - - - - - NW 19 35 10 19 - - -
22/05:30am - - - - - NW 19 35 10 19 - - -
22/05:00am - - - - - NNW 20 39 11 21 - - -
22/04:30am - - - - - NNW 20 32 11 17 - - -
22/04:00am - - - - - NNW 20 32 11 17 - - -
22/03:30am - - - - - NNW 19 30 10 16 - - -
22/03:00am - - - - - NNW 19 28 10 15 - - -
22/02:30am - - - - - NNW 15 24 8 13 - - -
22/02:00am - - - - - NNW 13 19 7 10 - - -
22/01:30am - - - - - NW 11 19 6 10 - - -
22/01:00am - - - - - NW 9 15 5 8 - - -
22/12:30am - - - - - NW 13 26 7 14 - - -
22/12:00am - - - - - WNW 13 24 7 13 - - -
 
Date/Time
CST
Temp
°C
App
Temp
°C
Dew
Point
°C
Rel
Hum
%
Delta-T
°C
Wind Press
QNH
hPa
Press
MSL
hPa
Rain since
9am
mm
Dir  Spd
km/h
Gust
km/h
Spd
kts
Gust
kts
21/11:30pm - - - - - NW 13 24 7 13 - - -
21/11:00pm - - - - - NW 17 32 9 17 - - -
21/10:30pm - - - - - NW 30 54 16 29 - - -
21/10:00pm - - - - - NNW 32 52 17 28 - - -
21/09:42pm - - - - - NNW 30 50 16 27 - - -
21/09:30pm - - - - - NNW 28 44 15 24 - - -
21/09:00pm - - - - - NNW 30 50 16 27 - - -
21/08:30pm - - - - - NNW 30 48 16 26 - - -
21/08:00pm - - - - - NNW 30 52 16 28 - - -
21/07:31pm - - - - - NNW 28 52 15 28 - - -
21/07:30pm - - - - - NNW 28 43 15 23 - - -
21/07:00pm - - - - - NNW 30 44 16 24 - - -
21/06:30pm - - - - - N 22 46 12 25 - - -
21/06:00pm - - - - - N 20 43 11 23 - - -
21/05:30pm - - - - - N 19 37 10 20 - - -
21/05:00pm - - - - - N 20 33 11 18 - - -
21/04:30pm - - - - - NNW 20 37 11 20 - - -
21/04:00pm - - - - - N 22 39 12 21 - - -
21/03:30pm - - - - - NNW 22 44 12 24 - - -
21/03:00pm - - - - - NNW 22 43 12 23 - - -
21/02:30pm - - - - - NNW 24 43 13 23 - - -
21/02:00pm - - - - - NNW 20 33 11 18 - - -
21/01:30pm - - - - - NNW 20 37 11 20 - - -
21/01:00pm - - - - - NNW 19 35 10 19 - - -
21/12:30pm - - - - - NNW 15 28 8 15 - - -
21/12:00pm - - - - - NNW 15 28 8 15 - - -
21/11:30am - - - - - N 13 24 7 13 - - -
21/11:00am - - - - - NNW 13 22 7 12 - - -
21/10:30am - - - - - NNW 13 26 7 14 - - -
21/10:00am - - - - - NNW 15 30 8 16 - - -
21/09:30am - - - - - N 13 26 7 14 - - -
21/09:00am - - - - - N 11 24 6 13 - - -
21/08:30am - - - - - N 11 24 6 13 - - -
21/08:00am - - - - - N 9 22 5 12 - - -
21/07:30am - - - - - N 9 17 5 9 - - -
21/07:00am - - - - - N 9 19 5 10 - - -
21/06:30am - - - - - N 7 15 4 8 - - -
21/06:00am - - - - - N 9 17 5 9 - - -
21/05:30am - - - - - N 9 20 5 11 - - -
21/05:00am - - - - - N 9 17 5 9 - - -
21/04:30am - - - - - N 9 15 5 8 - - -
21/04:00am - - - - - N 7 13 4 7 - - -
21/03:30am - - - - - N 9 20 5 11 - - -
21/03:00am - - - - - N 9 15 5 8 - - -

Other Formats:

Comma delimited format used in spreadsheet applications
http://www.bom.gov.au/fwo/IDS60801/IDS60801.95679.axf

JavaScript Object Notation format (JSON) in row-major order
http://www.bom.gov.au/fwo/IDS60801/IDS60801.95679.json